sensor_id;sensor_type;location;lat;lon;timestamp;pressure;altitude;pressure_sealevel;temperature;humidity
65880;BME280;52661;51.364;6.054;2023-07-31T00:01:52;100770.25;;;16.52;100.00
65880;BME280;52661;51.364;6.054;2023-07-31T00:04:18;100761.97;;;16.56;100.00
65880;BME280;52661;51.364;6.054;2023-07-31T00:06:43;100765.81;;;16.58;100.00
65880;BME280;52661;51.364;6.054;2023-07-31T00:09:08;100762.66;;;16.60;100.00
65880;BME280;52661;51.364;6.054;2023-07-31T00:11:34;100746.56;;;16.62;100.00
65880;BME280;52661;51.364;6.054;2023-07-31T00:13:59;100750.16;;;16.59;100.00
65880;BME280;52661;51.364;6.054;2023-07-31T00:16:25;100748.44;;;16.65;100.00
65880;BME280;52661;51.364;6.054;2023-07-31T00:18:51;100745.38;;;16.63;100.00
65880;BME280;52661;51.364;6.054;2023-07-31T00:21:16;100737.31;;;16.56;100.00
65880;BME280;52661;51.364;6.054;2023-07-31T00:23:41;100741.16;;;16.58;100.00
65880;BME280;52661;51.364;6.054;2023-07-31T00:26:07;100743.91;;;16.58;100.00
65880;BME280;52661;51.364;6.054;2023-07-31T00:28:32;100729.44;;;16.58;100.00
65880;BME280;52661;51.364;6.054;2023-07-31T00:30:58;100743.91;;;16.58;100.00
65880;BME280;52661;51.364;6.054;2023-07-31T00:33:23;100744.91;;;16.64;100.00
65880;BME280;52661;51.364;6.054;2023-07-31T00:35:48;100743.56;;;16.56;100.00
65880;BME280;52661;51.364;6.054;2023-07-31T00:38:14;100743.56;;;16.56;100.00
65880;BME280;52661;51.364;6.054;2023-07-31T00:40:39;100740.84;;;16.56;100.00
65880;BME280;52661;51.364;6.054;2023-07-31T00:43:05;100739.97;;;16.59;100.00
65880;BME280;52661;51.364;6.054;2023-07-31T00:45:31;100743.13;;;16.58;100.00
65880;BME280;52661;51.364;6.054;2023-07-31T00:47:56;100741.41;;;16.64;100.00
65880;BME280;52661;51.364;6.054;2023-07-31T00:50:24;100730.25;;;16.55;100.00
65880;BME280;52661;51.364;6.054;2023-07-31T00:52:49;100731.75;;;16.59;100.00
65880;BME280;52661;51.364;6.054;2023-07-31T00:55:15;100739.53;;;16.61;100.00
65880;BME280;52661;51.364;6.054;2023-07-31T00:57:41;100724.72;;;16.58;100.00
65880;BME280;52661;51.364;6.054;2023-07-31T01:00:07;100716.16;;;16.56;100.00
65880;BME280;52661;51.364;6.054;2023-07-31T01:02:33;100719.72;;;16.53;100.00
65880;BME280;52661;51.364;6.054;2023-07-31T01:04:59;100716.91;;;16.57;100.00
65880;BME280;52661;51.364;6.054;2023-07-31T01:07:33;100719.38;;;16.51;100.00
65880;BME280;52661;51.364;6.054;2023-07-31T01:10:30;100733.41;;;16.53;100.00
65880;BME280;52661;51.364;6.054;2023-07-31T01:12:59;100734.56;;;16.56;100.00
65880;BME280;52661;51.364;6.054;2023-07-31T01:15:25;100735.34;;;16.56;100.00
65880;BME280;52661;51.364;6.054;2023-07-31T01:17:50;100736.09;;;16.57;100.00
65880;BME280;52661;51.364;6.054;2023-07-31T01:20:23;100729.47;;;16.54;100.00
65880;BME280;52661;51.364;6.054;2023-07-31T01:26:15;100709.97;;;16.52;100.00
65880;BME280;52661;51.364;6.054;2023-07-31T01:28:50;100713.81;;;16.55;100.00
65880;BME280;52661;51.364;6.054;2023-07-31T01:31:23;100711.16;;;16.51;100.00
65880;BME280;52661;51.364;6.054;2023-07-31T01:33:50;100709.53;;;16.54;100.00
65880;BME280;52661;51.364;6.054;2023-07-31T01:36:17;100713.50;;;16.53;100.00
65880;BME280;52661;51.364;6.054;2023-07-31T01:38:43;100706.00;;;16.53;100.00
65880;BME280;52661;51.364;6.054;2023-07-31T01:41:08;100713.50;;;16.53;100.00
65880;BME280;52661;51.364;6.054;2023-07-31T01:43:34;100711.59;;;16.50;100.00
65880;BME280;52661;51.364;6.054;2023-07-31T01:45:59;100708.34;;;16.55;100.00
65880;BME280;52661;51.364;6.054;2023-07-31T01:48:24;100706.78;;;16.54;100.00
65880;BME280;52661;51.364;6.054;2023-07-31T01:50:50;100707.56;;;16.54;100.00
65880;BME280;52661;51.364;6.054;2023-07-31T01:53:15;100711.06;;;16.55;100.00
65880;BME280;52661;51.364;6.054;2023-07-31T01:55:40;100704.50;;;16.52;100.00
65880;BME280;52661;51.364;6.054;2023-07-31T01:58:06;100702.25;;;16.47;100.00
65880;BME280;52661;51.364;6.054;2023-07-31T02:00:31;100704.91;;;16.51;100.00
65880;BME280;52661;51.364;6.054;2023-07-31T02:02:57;100710.38;;;16.51;100.00
65880;BME280;52661;51.364;6.054;2023-07-31T02:05:22;100710.84;;;16.49;100.00
65880;BME280;52661;51.364;6.054;2023-07-31T02:07:47;100701.41;;;16.50;100.00
65880;BME280;52661;51.364;6.054;2023-07-31T02:10:13;100706.47;;;16.52;100.00
65880;BME280;52661;51.364;6.054;2023-07-31T02:12:38;100700.97;;;16.52;100.00
65880;BME280;52661;51.364;6.054;2023-07-31T02:15:04;100692.31;;;16.53;100.00
65880;BME280;52661;51.364;6.054;2023-07-31T02:17:29;100690.78;;;16.52;100.00
65880;BME280;52661;51.364;6.054;2023-07-31T02:19:55;100695.13;;;16.50;100.00
65880;BME280;52661;51.364;6.054;2023-07-31T02:22:20;100687.28;;;16.52;100.00
65880;BME280;52661;51.364;6.054;2023-07-31T02:24:46;100691.56;;;16.53;100.00
65880;BME280;52661;51.364;6.054;2023-07-31T02:27:11;100681.34;;;16.53;100.00
65880;BME280;52661;51.364;6.054;2023-07-31T02:29:37;100672.38;;;16.53;100.00
65880;BME280;52661;51.364;6.054;2023-07-31T02:32:02;100677.41;;;16.54;100.00
65880;BME280;52661;51.364;6.054;2023-07-31T02:34:28;100668.72;;;16.59;100.00
65880;BME280;52661;51.364;6.054;2023-07-31T02:36:53;100668.81;;;16.56;100.00
65880;BME280;52661;51.364;6.054;2023-07-31T02:39:18;100668.81;;;16.56;100.00
65880;BME280;52661;51.364;6.054;2023-07-31T02:41:44;100661.75;;;16.55;100.00
65880;BME280;52661;51.364;6.054;2023-07-31T02:44:09;100665.28;;;16.55;100.00
65880;BME280;52661;51.364;6.054;2023-07-31T02:46:35;100666.75;;;16.60;100.00
65880;BME280;52661;51.364;6.054;2023-07-31T02:49:01;100658.53;;;16.60;100.00
65880;BME280;52661;51.364;6.054;2023-07-31T02:51:26;100664.44;;;16.58;100.00
65880;BME280;52661;51.364;6.054;2023-07-31T02:53:51;100666.31;;;16.61;100.00
65880;BME280;52661;51.364;6.054;2023-07-31T02:56:17;100655.88;;;16.56;100.00
65880;BME280;52661;51.364;6.054;2023-07-31T02:58:42;100653.47;;;16.58;100.00
65880;BME280;52661;51.364;6.054;2023-07-31T03:01:08;100656.13;;;16.62;100.00
65880;BME280;52661;51.364;6.054;2023-07-31T03:03:33;100653.38;;;16.62;100.00
65880;BME280;52661;51.364;6.054;2023-07-31T03:05:59;100646.34;;;16.61;100.00
65880;BME280;52661;51.364;6.054;2023-07-31T03:08:24;100649.44;;;16.63;100.00
65880;BME280;52661;51.364;6.054;2023-07-31T03:10:49;100652.59;;;16.61;100.00
65880;BME280;52661;51.364;6.054;2023-07-31T03:13:15;100651.94;;;16.57;100.00
65880;BME280;52661;51.364;6.054;2023-07-31T03:15:43;100652.69;;;16.58;100.00
65880;BME280;52661;51.364;6.054;2023-07-31T03:18:09;100653.06;;;16.60;100.00
65880;BME280;52661;51.364;6.054;2023-07-31T03:20:34;100653.72;;;16.64;100.00
65880;BME280;52661;51.364;6.054;2023-07-31T03:22:59;100652.09;;;16.66;100.00
65880;BME280;52661;51.364;6.054;2023-07-31T03:25:25;100647.72;;;16.69;100.00
65880;BME280;52661;51.364;6.054;2023-07-31T03:27:50;100645.44;;;16.67;100.00
65880;BME280;52661;51.364;6.054;2023-07-31T03:30:15;100650.91;;;16.67;100.00
65880;BME280;52661;51.364;6.054;2023-07-31T03:32:41;100639.50;;;16.69;100.00
65880;BME280;52661;51.364;6.054;2023-07-31T03:35:06;100647.31;;;16.70;100.00
65880;BME280;52661;51.364;6.054;2023-07-31T03:37:32;100648.81;;;16.71;100.00
65880;BME280;52661;51.364;6.054;2023-07-31T03:39:57;100640.28;;;16.69;100.00
65880;BME280;52661;51.364;6.054;2023-07-31T03:42:23;100637.84;;;16.71;100.00
65880;BME280;52661;51.364;6.054;2023-07-31T03:44:48;100632.38;;;16.71;100.00
65880;BME280;52661;51.364;6.054;2023-07-31T03:47:13;100636.75;;;16.69;100.00
65880;BME280;52661;51.364;6.054;2023-07-31T03:49:39;100623.50;;;16.67;100.00
65880;BME280;52661;51.364;6.054;2023-07-31T03:52:04;100623.91;;;16.66;100.00
65880;BME280;52661;51.364;6.054;2023-07-31T03:54:30;100623.56;;;16.64;100.00
65880;BME280;52661;51.364;6.054;2023-07-31T03:56:55;100624.25;;;16.68;100.00
65880;BME280;52661;51.364;6.054;2023-07-31T03:59:20;100611.00;;;16.66;100.00
65880;BME280;52661;51.364;6.054;2023-07-31T04:01:46;100619.63;;;16.65;100.00
65880;BME280;52661;51.364;6.054;2023-07-31T04:04:11;100622.28;;;16.68;100.00
65880;BME280;52661;51.364;6.054;2023-07-31T04:06:37;100604.63;;;16.69;100.00
65880;BME280;52661;51.364;6.054;2023-07-31T04:09:02;100620.31;;;16.69;100.00
65880;BME280;52661;51.364;6.054;2023-07-31T04:11:28;100617.16;;;16.70;100.00
65880;BME280;52661;51.364;6.054;2023-07-31T04:13:53;100613.63;;;16.70;100.00
65880;BME280;52661;51.364;6.054;2023-07-31T04:16:18;100617.47;;;16.72;100.00
65880;BME280;52661;51.364;6.054;2023-07-31T04:18:44;100609.25;;;16.72;100.00
65880;BME280;52661;51.364;6.054;2023-07-31T04:21:09;100611.47;;;16.78;100.00
65880;BME280;52661;51.364;6.054;2023-07-31T04:23:35;100606.78;;;16.78;100.00
65880;BME280;52661;51.364;6.054;2023-07-31T04:26:00;100596.13;;;16.80;100.00
65880;BME280;52661;51.364;6.054;2023-07-31T04:28:26;100597.69;;;16.81;100.00
65880;BME280;52661;51.364;6.054;2023-07-31T04:30:51;100587.59;;;16.78;100.00
65880;BME280;52661;51.364;6.054;2023-07-31T04:33:17;100600.06;;;16.79;100.00
65880;BME280;52661;51.364;6.054;2023-07-31T04:35:49;100596.44;;;16.82;100.00
65880;BME280;52661;51.364;6.054;2023-07-31T04:38:17;100592.97;;;16.82;100.00
65880;BME280;52661;51.364;6.054;2023-07-31T04:40:42;100589.00;;;16.83;100.00
65880;BME280;52661;51.364;6.054;2023-07-31T04:43:08;100592.19;;;16.81;100.00
65880;BME280;52661;51.364;6.054;2023-07-31T04:45:33;100590.22;;;16.82;100.00
65880;BME280;52661;51.364;6.054;2023-07-31T04:47:58;100591.84;;;16.79;100.00
65880;BME280;52661;51.364;6.054;2023-07-31T04:50:24;100588.22;;;16.82;100.00
65880;BME280;52661;51.364;6.054;2023-07-31T04:52:49;100574.53;;;16.82;100.00
65880;BME280;52661;51.364;6.054;2023-07-31T04:55:15;100569.03;;;16.82;100.00
65880;BME280;52661;51.364;6.054;2023-07-31T04:57:40;100582.75;;;16.82;100.00
65880;BME280;52661;51.364;6.054;2023-07-31T05:00:06;100571.69;;;16.86;100.00
65880;BME280;52661;51.364;6.054;2023-07-31T05:02:31;100565.34;;;16.89;100.00
65880;BME280;52661;51.364;6.054;2023-07-31T05:04:57;100564.13;;;16.90;100.00
65880;BME280;52661;51.364;6.054;2023-07-31T05:07:22;100567.66;;;16.90;100.00
65880;BME280;52661;51.364;6.054;2023-07-31T05:09:48;100564.03;;;16.93;100.00
65880;BME280;52661;51.364;6.054;2023-07-31T05:12:13;100562.84;;;16.94;100.00
65880;BME280;52661;51.364;6.054;2023-07-31T05:14:39;100566.25;;;16.98;100.00
65880;BME280;52661;51.364;6.054;2023-07-31T05:17:04;100562.72;;;16.98;100.00
65880;BME280;52661;51.364;6.054;2023-07-31T05:19:30;100560.19;;;16.91;100.00
65880;BME280;52661;51.364;6.054;2023-07-31T05:21:55;100554.81;;;16.87;100.00
65880;BME280;52661;51.364;6.054;2023-07-31T05:24:20;100550.97;;;16.85;100.00
65880;BME280;52661;51.364;6.054;2023-07-31T05:26:46;100546.25;;;16.85;100.00
65880;BME280;52661;51.364;6.054;2023-07-31T05:29:11;100546.25;;;16.85;100.00
65880;BME280;52661;51.364;6.054;2023-07-31T05:31:36;100547.78;;;16.86;100.00
65880;BME280;52661;51.364;6.054;2023-07-31T05:34:03;100542.66;;;16.88;100.00
65880;BME280;52661;51.364;6.054;2023-07-31T05:36:29;100539.56;;;16.86;100.00
65880;BME280;52661;51.364;6.054;2023-07-31T05:38:54;100536.81;;;16.86;100.00
65880;BME280;52661;51.364;6.054;2023-07-31T05:41:19;100547.13;;;16.82;100.00
65880;BME280;52661;51.364;6.054;2023-07-31T05:43:45;100535.06;;;16.80;100.00
65880;BME280;52661;51.364;6.054;2023-07-31T05:46:11;100529.78;;;16.72;100.00
65880;BME280;52661;51.364;6.054;2023-07-31T05:48:37;100535.72;;;16.71;100.00
65880;BME280;52661;51.364;6.054;2023-07-31T05:51:02;100531.16;;;16.64;100.00
65880;BME280;52661;51.364;6.054;2023-07-31T05:53:28;100528.31;;;16.68;100.00
65880;BME280;52661;51.364;6.054;2023-07-31T05:55:53;100534.59;;;16.68;100.00
65880;BME280;52661;51.364;6.054;2023-07-31T05:58:19;100524.50;;;16.65;100.00
65880;BME280;52661;51.364;6.054;2023-07-31T06:00:44;100523.72;;;16.65;100.00
65880;BME280;52661;51.364;6.054;2023-07-31T06:03:09;100532.28;;;16.67;100.00
65880;BME280;52661;51.364;6.054;2023-07-31T06:05:35;100527.66;;;16.64;100.00
65880;BME280;52661;51.364;6.054;2023-07-31T06:08:01;100525.25;;;16.66;100.00
65880;BME280;52661;51.364;6.054;2023-07-31T06:10:26;100532.03;;;16.61;100.00
65880;BME280;52661;51.364;6.054;2023-07-31T06:12:51;100532.50;;;16.60;100.00
65880;BME280;52661;51.364;6.054;2023-07-31T06:15:18;100532.13;;;16.58;100.00
65880;BME280;52661;51.364;6.054;2023-07-31T06:17:44;100542.22;;;16.61;100.00
65880;BME280;52661;51.364;6.054;2023-07-31T06:20:10;100531.72;;;16.59;100.00
65880;BME280;52661;51.364;6.054;2023-07-31T06:22:35;100540.50;;;16.67;100.00
65880;BME280;52661;51.364;6.054;2023-07-31T06:25:01;100535.56;;;16.62;100.00
65880;BME280;52661;51.364;6.054;2023-07-31T06:27:26;100545.06;;;16.57;100.00
65880;BME280;52661;51.364;6.054;2023-07-31T06:29:52;100526.72;;;16.54;100.00
65880;BME280;52661;51.364;6.054;2023-07-31T06:32:17;100538.88;;;16.53;100.00
65880;BME280;52661;51.364;6.054;2023-07-31T06:34:42;100524.44;;;16.53;100.00
65880;BME280;52661;51.364;6.054;2023-07-31T06:37:08;100519.69;;;16.53;100.00
65880;BME280;52661;51.364;6.054;2023-07-31T06:39:33;100515.75;;;16.54;100.00
65880;BME280;52661;51.364;6.054;2023-07-31T06:41:59;100513.81;;;16.55;100.00
65880;BME280;52661;51.364;6.054;2023-07-31T06:44:24;100511.25;;;16.48;100.00
65880;BME280;52661;51.364;6.054;2023-07-31T06:46:49;100503.91;;;16.45;100.00
65880;BME280;52661;51.364;6.054;2023-07-31T06:49:15;100514.19;;;16.41;100.00
65880;BME280;52661;51.364;6.054;2023-07-31T06:51:41;100506.50;;;16.36;100.00
65880;BME280;52661;51.364;6.054;2023-07-31T06:54:07;100503.56;;;16.43;100.00
65880;BME280;52661;51.364;6.054;2023-07-31T06:56:33;100492.09;;;16.48;100.00
65880;BME280;52661;51.364;6.054;2023-07-31T06:58:58;100500.91;;;16.39;100.00
65880;BME280;52661;51.364;6.054;2023-07-31T07:01:23;100496.66;;;16.38;100.00
65880;BME280;52661;51.364;6.054;2023-07-31T07:03:49;100514.19;;;16.41;100.00
65880;BME280;52661;51.364;6.054;2023-07-31T07:06:19;100502.88;;;16.39;100.00
65880;BME280;52661;51.364;6.054;2023-07-31T07:08:44;100496.66;;;16.38;100.00
65880;BME280;52661;51.364;6.054;2023-07-31T07:11:10;100489.97;;;16.39;100.00
65880;BME280;52661;51.364;6.054;2023-07-31T07:13:35;100481.75;;;16.39;100.00
65880;BME280;52661;51.364;6.054;2023-07-31T07:16:00;100480.97;;;16.39;100.00
65880;BME280;52661;51.364;6.054;2023-07-31T07:18:26;100480.66;;;16.37;100.00
65880;BME280;52661;51.364;6.054;2023-07-31T07:20:53;100484.44;;;16.27;100.00
65880;BME280;52661;51.364;6.054;2023-07-31T07:23:19;100484.34;;;16.30;100.00
65880;BME280;52661;51.364;6.054;2023-07-31T07:25:45;100487.59;;;16.25;100.00
65880;BME280;52661;51.364;6.054;2023-07-31T07:28:10;100484.19;;;16.21;100.00
65880;BME280;52661;51.364;6.054;2023-07-31T07:30:36;100488.66;;;16.15;100.00
65880;BME280;52661;51.364;6.054;2023-07-31T07:33:01;100475.66;;;16.19;100.00
65880;BME280;52661;51.364;6.054;2023-07-31T07:35:27;100472.50;;;16.20;100.00
65880;BME280;52661;51.364;6.054;2023-07-31T07:37:52;100463.41;;;16.23;100.00
65880;BME280;52661;51.364;6.054;2023-07-31T07:40:19;100467.66;;;16.24;100.00
65880;BME280;52661;51.364;6.054;2023-07-31T07:42:44;100480.16;;;16.25;100.00
65880;BME280;52661;51.364;6.054;2023-07-31T07:45:09;100465.09;;;16.34;100.00
65880;BME280;52661;51.364;6.054;2023-07-31T07:47:35;100469.59;;;16.40;100.00
65880;BME280;52661;51.364;6.054;2023-07-31T07:50:00;100467.94;;;16.43;100.00
65880;BME280;52661;51.364;6.054;2023-07-31T07:52:25;100474.44;;;16.49;100.00
65880;BME280;52661;51.364;6.054;2023-07-31T07:54:51;100460.91;;;16.58;100.00
65880;BME280;52661;51.364;6.054;2023-07-31T07:57:16;100476.81;;;16.63;100.00
65880;BME280;52661;51.364;6.054;2023-07-31T07:59:42;100462.81;;;16.45;100.00
65880;BME280;52661;51.364;6.054;2023-07-31T08:02:07;100466.66;;;16.47;100.00
65880;BME280;52661;51.364;6.054;2023-07-31T08:04:33;100467.09;;;16.46;100.00
65880;BME280;52661;51.364;6.054;2023-07-31T08:06:58;100473.53;;;16.39;100.00
65880;BME280;52661;51.364;6.054;2023-07-31T08:09:23;100450.84;;;16.39;100.00
65880;BME280;52661;51.364;6.054;2023-07-31T08:11:49;100463.03;;;16.38;100.00
65880;BME280;52661;51.364;6.054;2023-07-31T08:14:14;100460.06;;;16.45;100.00
65880;BME280;52661;51.364;6.054;2023-07-31T08:16:39;100459.00;;;16.42;100.00
65880;BME280;52661;51.364;6.054;2023-07-31T08:19:05;100465.31;;;16.39;100.00
65880;BME280;52661;51.364;6.054;2023-07-31T08:21:31;100466.53;;;16.38;100.00
65880;BME280;52661;51.364;6.054;2023-07-31T08:23:57;100458.22;;;16.42;100.00
65880;BME280;52661;51.364;6.054;2023-07-31T08:26:22;100454.91;;;16.47;100.00
65880;BME280;52661;51.364;6.054;2023-07-31T08:28:48;100459.59;;;16.34;100.00
65880;BME280;52661;51.364;6.054;2023-07-31T08:31:13;100452.59;;;16.33;100.00
65880;BME280;52661;51.364;6.054;2023-07-31T08:33:39;100467.06;;;16.33;100.00
65880;BME280;52661;51.364;6.054;2023-07-31T08:36:05;100455.66;;;16.35;100.00
65880;BME280;52661;51.364;6.054;2023-07-31T08:38:31;100464.22;;;16.37;100.00
65880;BME280;52661;51.364;6.054;2023-07-31T08:40:57;100455.47;;;16.42;100.00
65880;BME280;52661;51.364;6.054;2023-07-31T08:43:25;100460.94;;;16.42;100.00
65880;BME280;52661;51.364;6.054;2023-07-31T08:45:51;100451.88;;;16.45;100.00
65880;BME280;52661;51.364;6.054;2023-07-31T08:48:17;100455.69;;;16.47;100.00
65880;BME280;52661;51.364;6.054;2023-07-31T08:50:43;100460.66;;;16.52;100.00
65880;BME280;52661;51.364;6.054;2023-07-31T08:53:08;100459.34;;;16.57;100.00
65880;BME280;52661;51.364;6.054;2023-07-31T08:55:34;100460.97;;;16.54;100.00
65880;BME280;52661;51.364;6.054;2023-07-31T08:58:01;100461.06;;;16.51;100.00
65880;BME280;52661;51.364;6.054;2023-07-31T09:00:29;100459.44;;;16.53;100.00
65880;BME280;52661;51.364;6.054;2023-07-31T09:03:09;100451.91;;;16.57;100.00
65880;BME280;52661;51.364;6.054;2023-07-31T09:05:36;100462.94;;;16.54;100.00
65880;BME280;52661;51.364;6.054;2023-07-31T09:08:02;100458.81;;;16.62;100.00
65880;BME280;52661;51.364;6.054;2023-07-31T09:10:29;100458.06;;;16.61;100.00
65880;BME280;52661;51.364;6.054;2023-07-31T09:12:55;100469.13;;;16.58;100.00
65880;BME280;52661;51.364;6.054;2023-07-31T09:15:21;100459.88;;;16.52;100.00
65880;BME280;52661;51.364;6.054;2023-07-31T09:17:58;100462.63;;;16.52;100.00
65880;BME280;52661;51.364;6.054;2023-07-31T09:20:24;100449.03;;;16.48;100.00
65880;BME280;52661;51.364;6.054;2023-07-31T09:22:49;100441.56;;;16.49;100.00
65880;BME280;52661;51.364;6.054;2023-07-31T09:25:24;100451.13;;;16.57;100.00
65880;BME280;52661;51.364;6.054;2023-07-31T09:28:05;100446.44;;;16.57;100.00
65880;BME280;52661;51.364;6.054;2023-07-31T09:30:31;100454.44;;;16.64;100.00
65880;BME280;52661;51.364;6.054;2023-07-31T09:33:06;100442.81;;;16.60;100.00
65880;BME280;52661;51.364;6.054;2023-07-31T09:35:33;100449.88;;;16.74;100.00
65880;BME280;52661;51.364;6.054;2023-07-31T09:38:05;100454.47;;;16.77;100.00
65880;BME280;52661;51.364;6.054;2023-07-31T09:40:32;100446.47;;;16.70;100.00
65880;BME280;52661;51.364;6.054;2023-07-31T09:43:02;100441.97;;;16.76;100.00
65880;BME280;52661;51.364;6.054;2023-07-31T09:45:29;100440.97;;;16.83;100.00
65880;BME280;52661;51.364;6.054;2023-07-31T09:47:55;100436.72;;;16.82;100.00
65880;BME280;52661;51.364;6.054;2023-07-31T09:50:22;100436.94;;;16.87;100.00
65880;BME280;52661;51.364;6.054;2023-07-31T09:52:48;100433.88;;;16.98;100.00
65880;BME280;52661;51.364;6.054;2023-07-31T09:55:14;100432.66;;;16.99;100.00
65880;BME280;52661;51.364;6.054;2023-07-31T09:57:41;100430.91;;;17.05;100.00
65880;BME280;52661;51.364;6.054;2023-07-31T10:00:08;100432.00;;;17.07;100.00
65880;BME280;52661;51.364;6.054;2023-07-31T10:02:38;100434.66;;;17.11;100.00
65880;BME280;52661;51.364;6.054;2023-07-31T10:05:05;100431.13;;;17.10;100.00
65880;BME280;52661;51.364;6.054;2023-07-31T10:07:31;100422.91;;;17.10;100.00
65880;BME280;52661;51.364;6.054;2023-07-31T10:10:00;100422.69;;;17.17;100.00
65880;BME280;52661;51.364;6.054;2023-07-31T10:12:26;100427.28;;;17.20;100.00
65880;BME280;52661;51.364;6.054;2023-07-31T10:14:56;100431.66;;;17.31;100.00
65880;BME280;52661;51.364;6.054;2023-07-31T10:17:22;100423.66;;;17.36;100.00
65880;BME280;52661;51.364;6.054;2023-07-31T10:19:49;100425.41;;;17.43;100.00
65880;BME280;52661;51.364;6.054;2023-07-31T10:22:15;100429.34;;;17.42;100.00
65880;BME280;52661;51.364;6.054;2023-07-31T10:24:42;100428.47;;;17.45;100.00
65880;BME280;52661;51.364;6.054;2023-07-31T10:27:09;100433.81;;;17.48;100.00
65880;BME280;52661;51.364;6.054;2023-07-31T10:29:36;100427.13;;;17.49;100.00
65880;BME280;52661;51.364;6.054;2023-07-31T10:32:04;100436.78;;;17.54;100.00
65880;BME280;52661;51.364;6.054;2023-07-31T10:34:34;100422.63;;;17.55;100.00
65880;BME280;52661;51.364;6.054;2023-07-31T10:37:36;100431.22;;;17.57;100.00
65880;BME280;52661;51.364;6.054;2023-07-31T10:40:06;100427.69;;;17.57;100.00
65880;BME280;52661;51.364;6.054;2023-07-31T10:42:37;100429.53;;;17.47;100.00
65880;BME280;52661;51.364;6.054;2023-07-31T10:45:06;100421.09;;;17.42;100.00
65880;BME280;52661;51.364;6.054;2023-07-31T10:50:12;100421.78;;;17.33;100.00
65880;BME280;52661;51.364;6.054;2023-07-31T10:52:38;100420.47;;;17.38;100.00
65880;BME280;52661;51.364;6.054;2023-07-31T10:55:28;100423.19;;;17.38;100.00
65880;BME280;52661;51.364;6.054;2023-07-31T10:57:55;100435.59;;;17.42;100.00
65880;BME280;52661;51.364;6.054;2023-07-31T11:03:01;100433.72;;;17.52;100.00
65880;BME280;52661;51.364;6.054;2023-07-31T11:08:24;100434.16;;;17.63;100.00
65880;BME280;52661;51.364;6.054;2023-07-31T11:11:04;100436.22;;;17.72;100.00
65880;BME280;52661;51.364;6.054;2023-07-31T11:13:39;100427.94;;;17.84;100.00
65880;BME280;52661;51.364;6.054;2023-07-31T11:16:04;100419.50;;;17.79;100.00
65880;BME280;52661;51.364;6.054;2023-07-31T11:18:30;100411.16;;;17.82;100.00
65880;BME280;52661;51.364;6.054;2023-07-31T11:20:55;100406.56;;;17.79;100.00
65880;BME280;52661;51.364;6.054;2023-07-31T11:23:22;100420.16;;;17.83;100.00
65880;BME280;52661;51.364;6.054;2023-07-31T11:25:47;100419.81;;;17.81;100.00
65880;BME280;52661;51.364;6.054;2023-07-31T11:28:14;100413.69;;;17.77;100.00
65880;BME280;52661;51.364;6.054;2023-07-31T11:30:41;100424.34;;;17.75;100.00
65880;BME280;52661;51.364;6.054;2023-07-31T11:33:07;100426.03;;;17.72;100.00
65880;BME280;52661;51.364;6.054;2023-07-31T11:35:35;100413.69;;;17.77;100.00
65880;BME280;52661;51.364;6.054;2023-07-31T11:38:01;100413.13;;;17.82;100.00
65880;BME280;52661;51.364;6.054;2023-07-31T11:40:26;100404.84;;;17.94;100.00
65880;BME280;52661;51.364;6.054;2023-07-31T11:42:56;100398.13;;;17.95;100.00
65880;BME280;52661;51.364;6.054;2023-07-31T11:45:25;100396.69;;;18.03;100.00
65880;BME280;52661;51.364;6.054;2023-07-31T11:47:51;100405.09;;;18.09;100.00
65880;BME280;52661;51.364;6.054;2023-07-31T11:50:18;100394.56;;;18.07;100.00
65880;BME280;52661;51.364;6.054;2023-07-31T11:52:44;100393.66;;;18.10;100.00
65880;BME280;52661;51.364;6.054;2023-07-31T11:55:12;100391.50;;;18.05;100.00
65880;BME280;52661;51.364;6.054;2023-07-31T11:57:39;100397.75;;;18.06;100.00
65880;BME280;52661;51.364;6.054;2023-07-31T12:00:09;100387.09;;;18.08;100.00
65880;BME280;52661;51.364;6.054;2023-07-31T12:02:36;100395.13;;;18.02;100.00
65880;BME280;52661;51.364;6.054;2023-07-31T12:05:02;100395.13;;;18.02;100.00
65880;BME280;52661;51.364;6.054;2023-07-31T12:07:52;100393.94;;;18.03;100.00
65880;BME280;52661;51.364;6.054;2023-07-31T12:10:31;100389.22;;;18.04;100.00
65880;BME280;52661;51.364;6.054;2023-07-31T12:13:03;100384.91;;;18.03;100.00
65880;BME280;52661;51.364;6.054;2023-07-31T12:17:57;100371.97;;;18.03;100.00
65880;BME280;52661;51.364;6.054;2023-07-31T12:20:22;100384.22;;;18.11;100.00
65880;BME280;52661;51.364;6.054;2023-07-31T12:22:48;100383.75;;;18.13;100.00
65880;BME280;52661;51.364;6.054;2023-07-31T12:25:16;100385.47;;;18.19;100.00
65880;BME280;52661;51.364;6.054;2023-07-31T12:27:44;100388.88;;;18.24;100.00
65880;BME280;52661;51.364;6.054;2023-07-31T12:30:31;100382.50;;;18.27;100.00
65880;BME280;52661;51.364;6.054;2023-07-31T12:32:57;100377.00;;;18.27;100.00
65880;BME280;52661;51.364;6.054;2023-07-31T12:35:34;100388.00;;;18.27;100.00
65880;BME280;52661;51.364;6.054;2023-07-31T12:38:03;100375.78;;;18.28;100.00
65880;BME280;52661;51.364;6.054;2023-07-31T12:40:29;100369.97;;;18.26;100.00
65880;BME280;52661;51.364;6.054;2023-07-31T12:42:54;100365.69;;;18.25;100.00
65880;BME280;52661;51.364;6.054;2023-07-31T12:45:20;100359.56;;;18.20;100.00
65880;BME280;52661;51.364;6.054;2023-07-31T12:47:46;100342.28;;;18.20;100.00
65880;BME280;52661;51.364;6.054;2023-07-31T12:50:12;100348.25;;;18.18;100.00
65880;BME280;52661;51.364;6.054;2023-07-31T12:52:38;100354.06;;;18.20;100.00